Time;durP1;ratioP1;P1;durP2;ratioP2;P2;SDS_P1;SDS_P2;PMS_P1;PMS_P2;Temp;Humidity;BMP_temperature;BMP_pressure;BME280_temperature;BME280_humidity;BME280_pressure;Samples;Min_cycle;Max_cycle;Signal;HPM_P1;HPM_P2
2023/01/04 00:01:06;;;;;;;40.65;15.05;;;3.20;99.90;;;;;;5013076;28;20327;-74
2023/01/04 00:03:33;;;;;;;33.95;14.38;;;3.30;99.90;;;;;;5012681;28;20216;-75
2023/01/04 00:06:01;;;;;;;42.38;14.50;;;3.20;99.90;;;;;;5011623;28;20208;-75
2023/01/04 00:08:27;;;;;;;35.47;14.80;;;3.20;99.90;;;;;;5013955;28;20185;-75
2023/01/04 00:10:53;;;;;;;39.55;15.98;;;3.20;99.90;;;;;;5008186;28;20276;-75
2023/01/04 00:13:18;;;;;;;37.05;15.60;;;3.20;99.90;;;;;;5011830;28;20276;-75
2023/01/04 00:15:44;;;;;;;17.00;12.73;;;3.20;99.90;;;;;;5012848;28;20191;-75
2023/01/04 00:18:09;;;;;;;16.33;13.40;;;3.30;99.90;;;;;;5011758;28;20589;-76
2023/01/04 00:20:35;;;;;;;55.63;16.42;;;3.30;99.90;;;;;;5011770;28;20192;-76
2023/01/04 00:23:00;;;;;;;19.45;12.88;;;3.20;99.90;;;;;;5012923;28;20201;-75
2023/01/04 00:25:26;;;;;;;32.88;14.70;;;3.10;99.90;;;;;;5005612;28;20189;-76
2023/01/04 00:27:52;;;;;;;32.20;14.45;;;3.20;99.90;;;;;;5013979;28;20251;-75
2023/01/04 00:30:17;;;;;;;22.88;13.52;;;3.10;99.90;;;;;;5013653;28;20224;-76
2023/01/04 00:32:44;;;;;;;36.78;14.82;;;3.10;99.90;;;;;;5008456;28;20205;-76
2023/01/04 00:35:10;;;;;;;26.05;13.63;;;3.10;99.90;;;;;;5014528;28;20201;-76
2023/01/04 00:37:36;;;;;;;40.65;14.32;;;3.10;99.90;;;;;;5012438;28;20182;-76
2023/01/04 00:40:02;;;;;;;25.80;13.40;;;2.90;99.90;;;;;;5009691;28;20181;-76
2023/01/04 00:42:28;;;;;;;46.85;14.80;;;2.90;99.90;;;;;;5009796;28;20251;-76
2023/01/04 00:44:53;;;;;;;37.17;14.18;;;2.90;99.90;;;;;;5012462;28;20645;-76
2023/01/04 00:47:19;;;;;;;38.13;14.00;;;2.90;99.90;;;;;;5012661;28;20190;-76
2023/01/04 00:49:44;;;;;;;30.90;13.02;;;2.90;99.90;;;;;;5012996;28;20324;-74
2023/01/04 00:52:10;;;;;;;48.50;13.38;;;2.90;99.90;;;;;;5009670;28;20240;-75
2023/01/04 00:54:36;;;;;;;47.97;14.73;;;2.90;99.90;;;;;;5013079;28;20545;-75
2023/01/04 00:57:01;;;;;;;27.25;13.32;;;2.90;99.90;;;;;;5011911;28;20189;-76
2023/01/04 00:59:27;;;;;;;13.27;11.88;;;2.90;99.90;;;;;;5012412;28;20176;-75
2023/01/04 01:01:53;;;;;;;20.33;12.40;;;3.00;99.90;;;;;;5014845;28;20652;-75
2023/01/04 01:04:21;;;;;;;16.83;11.85;;;3.00;99.90;;;;;;5015341;28;20184;-76
2023/01/04 01:06:47;;;;;;;12.35;10.73;;;3.00;99.90;;;;;;5012492;28;20200;-75
2023/01/04 01:09:13;;;;;;;34.80;10.95;;;3.10;99.90;;;;;;5009033;28;20181;-75
2023/01/04 01:11:40;;;;;;;32.25;11.35;;;3.10;99.90;;;;;;5014993;28;20204;-75
2023/01/04 01:14:15;;;;;;;23.50;10.05;;;3.10;99.90;;;;;;5013344;28;20629;-74
2023/01/04 01:16:40;;;;;;;24.58;11.07;;;3.00;99.90;;;;;;5010794;28;20530;-75
2023/01/04 01:19:06;;;;;;;24.58;9.77;;;3.10;99.90;;;;;;5011920;28;20195;-75
2023/01/04 01:21:31;;;;;;;26.52;10.32;;;3.10;99.90;;;;;;5012243;28;20658;-75
2023/01/04 01:23:57;;;;;;;19.08;9.90;;;3.10;99.90;;;;;;5012263;28;20181;-75
2023/01/04 01:26:24;;;;;;;31.08;10.55;;;3.20;99.90;;;;;;5012047;28;20550;-76
2023/01/04 01:28:50;;;;;;;34.00;10.52;;;3.10;99.90;;;;;;5016398;28;20981;-75
2023/01/04 01:31:22;;;;;;;37.10;10.77;;;3.10;99.90;;;;;;5012186;28;20256;-76
2023/01/04 01:33:49;;;;;;;43.75;11.20;;;3.00;99.90;;;;;;5008397;28;20558;-75
2023/01/04 01:36:16;;;;;;;48.70;10.20;;;2.90;99.90;;;;;;5014845;28;20652;-75
2023/01/04 01:38:43;;;;;;;31.85;10.70;;;2.80;99.90;;;;;;5015867;28;20187;-75
2023/01/04 01:41:17;;;;;;;35.20;10.25;;;2.80;99.90;;;;;;5018126;28;20209;-76
2023/01/04 01:43:48;;;;;;;37.25;10.68;;;2.70;99.90;;;;;;5019039;28;20279;-76
2023/01/04 01:46:16;;;;;;;27.95;10.00;;;2.70;99.90;;;;;;5013277;28;20181;-76
2023/01/04 01:48:42;;;;;;;36.13;11.15;;;2.70;99.90;;;;;;5014120;28;20535;-75
2023/01/04 01:51:09;;;;;;;9.32;8.32;;;2.70;99.90;;;;;;5020910;28;20220;-75
2023/01/04 01:53:40;;;;;;;15.35;9.95;;;2.70;99.90;;;;;;5018860;28;20365;-76
2023/01/04 01:56:08;;;;;;;10.20;9.00;;;2.90;99.90;;;;;;5016563;28;20543;-76
2023/01/04 01:58:38;;;;;;;11.15;9.00;;;2.90;99.90;;;;;;5015828;28;20173;-75
2023/01/04 02:01:03;;;;;;;11.63;9.63;;;3.00;99.90;;;;;;5014829;28;20596;-75
2023/01/04 02:03:36;;;;;;;11.43;9.55;;;3.00;99.90;;;;;;5016463;28;20189;-76
2023/01/04 02:06:05;;;;;;;10.48;9.10;;;2.90;99.90;;;;;;5018103;28;20193;-75
2023/01/04 02:08:31;;;;;;;10.32;9.27;;;3.00;99.90;;;;;;5017781;28;20207;-76
2023/01/04 02:10:57;;;;;;;9.20;8.23;;;2.80;99.90;;;;;;5014302;28;20201;-76
2023/01/04 02:14:25;;;;;;;9.35;8.45;;;2.80;99.90;;;;;;5016186;28;20178;-76
2023/01/04 02:16:26;;;;;;;12.57;10.23;;;2.90;99.90;;;;;;5021443;28;20574;-75
2023/01/04 02:19:15;;;;;;;16.80;10.48;;;2.80;99.90;;;;;;5015955;28;20205;-76
2023/01/04 02:21:55;;;;;;;16.58;9.93;;;2.80;99.90;;;;;;5014297;28;20200;-76
2023/01/04 02:24:23;;;;;;;38.45;11.93;;;2.70;99.90;;;;;;5015004;28;20651;-76
2023/01/04 02:27:12;;;;;;;19.80;11.85;;;2.60;99.90;;;;;;5018496;28;20187;-76
2023/01/04 02:30:01;;;;;;;21.95;12.70;;;2.60;99.90;;;;;;5017600;28;20224;-76
2023/01/04 02:32:39;;;;;;;21.65;11.40;;;2.40;99.90;;;;;;5013830;28;20209;-75
2023/01/04 02:35:25;;;;;;;16.13;11.80;;;2.40;99.90;;;;;;5012417;28;20188;-75
2023/01/04 02:38:16;;;;;;;20.42;11.98;;;2.40;99.90;;;;;;5012979;28;20181;-75
2023/01/04 02:40:51;;;;;;;24.70;11.63;;;2.30;99.90;;;;;;5015951;28;20719;-75
2023/01/04 02:46:22;;;;;;;15.57;10.82;;;2.30;99.90;;;;;;5014692;28;20262;-77
2023/01/04 02:51:35;;;;;;;26.40;10.93;;;2.40;99.90;;;;;;5015504;28;20757;-76
2023/01/04 02:54:28;;;;;;;21.40;11.13;;;2.50;99.90;;;;;;5014411;28;20197;-76
2023/01/04 02:57:07;;;;;;;29.42;10.77;;;2.40;99.90;;;;;;5014130;28;20540;-76
2023/01/04 03:00:03;;;;;;;17.98;10.05;;;2.40;99.90;;;;;;5014633;28;20304;-76
2023/01/04 03:06:14;;;;;;;35.35;12.13;;;2.30;99.90;;;;;;5014607;28;20195;-76
2023/01/04 03:08:58;;;;;;;42.13;10.90;;;2.20;99.90;;;;;;5012854;28;20201;-76
2023/01/04 03:14:24;;;;;;;13.82;10.20;;;2.10;99.90;;;;;;5013505;28;20209;-74
2023/01/04 03:16:51;;;;;;;14.68;10.68;;;2.10;99.90;;;;;;5011295;28;20182;-74
2023/01/04 03:35:21;;;;;;;25.15;10.40;;;2.30;99.90;;;;;;5018139;28;20305;-75
2023/01/04 03:36:19;;;;;;;14.02;10.60;;;2.50;99.90;;;;;;5015857;28;20192;-75
2023/01/04 03:50:47;;;;;;;23.60;10.60;;;2.20;99.90;;;;;;5014333;28;20199;-74
2023/01/04 03:53:13;;;;;;;24.35;11.18;;;2.20;99.90;;;;;;5017077;28;20715;-75
2023/01/04 03:55:41;;;;;;;15.30;10.60;;;2.20;99.90;;;;;;5013970;28;20659;-74
2023/01/04 03:58:07;;;;;;;12.35;9.80;;;2.20;99.90;;;;;;5011582;28;20208;-73
2023/01/04 04:00:33;;;;;;;24.08;10.45;;;2.30;99.90;;;;;;5010349;28;20188;-75
2023/01/04 04:03:06;;;;;;;24.90;10.63;;;2.30;99.90;;;;;;5015837;28;20220;-75
2023/01/04 04:08:28;;;;;;;22.65;10.60;;;2.10;99.90;;;;;;5012153;28;20243;-76
2023/01/04 04:10:56;;;;;;;14.13;9.77;;;2.10;99.90;;;;;;5010417;28;20211;-74
2023/01/04 04:13:22;;;;;;;10.85;8.77;;;2.20;99.90;;;;;;5012950;28;20173;-75
2023/01/04 04:15:50;;;;;;;13.75;8.85;;;2.30;99.90;;;;;;5012338;28;20632;-75
2023/01/04 04:18:16;;;;;;;22.90;9.70;;;2.40;99.90;;;;;;5009215;28;20243;-75
2023/01/04 04:20:41;;;;;;;15.02;8.80;;;2.30;99.90;;;;;;5013266;28;20181;-78
2023/01/04 04:23:07;;;;;;;21.77;9.88;;;2.30;99.90;;;;;;5010994;28;20220;-73
2023/01/04 04:25:33;;;;;;;34.95;11.20;;;2.20;99.90;;;;;;5012992;28;20182;-74
2023/01/04 04:27:58;;;;;;;19.67;10.25;;;2.10;99.90;;;;;;5011330;28;20199;-75
2023/01/04 04:30:24;;;;;;;12.60;9.55;;;2.10;99.90;;;;;;5013672;28;20293;-75
2023/01/04 04:32:49;;;;;;;16.38;10.68;;;2.20;99.90;;;;;;5009588;28;20212;-74
2023/01/04 04:35:15;;;;;;;16.75;10.20;;;2.30;99.90;;;;;;5010854;28;20189;-74
2023/01/04 04:37:40;;;;;;;15.80;10.70;;;2.30;99.90;;;;;;5013373;28;20540;-74
2023/01/04 04:41:37;;;;;;;12.40;9.77;;;2.30;99.90;;;;;;5012767;28;20185;-73
2023/01/04 04:42:52;;;;;;;10.73;9.52;;;2.30;99.90;;;;;;5000762;28;20212;-73
2023/01/04 04:45:18;;;;;;;25.88;11.70;;;2.40;99.90;;;;;;5004857;28;20173;-73
2023/01/04 04:47:44;;;;;;;11.90;9.60;;;2.40;99.90;;;;;;5011427;28;20183;-73
2023/01/04 04:50:09;;;;;;;11.80;9.35;;;2.40;99.90;;;;;;5011829;28;20216;-74
2023/01/04 04:52:35;;;;;;;11.60;9.38;;;2.40;99.90;;;;;;5009319;28;20238;-74
2023/01/04 04:55:00;;;;;;;15.00;10.20;;;2.40;99.90;;;;;;5010230;28;20181;-74
2023/01/04 04:57:26;;;;;;;23.10;10.93;;;2.40;99.90;;;;;;5012619;28;20186;-74
2023/01/04 04:59:51;;;;;;;24.02;11.10;;;2.40;99.90;;;;;;5013841;28;20192;-74
2023/01/04 05:02:17;;;;;;;19.40;11.25;;;2.30;99.90;;;;;;5008314;28;20555;-74
2023/01/04 05:04:42;;;;;;;19.05;10.35;;;2.30;99.90;;;;;;5011815;28;20203;-74
2023/01/04 05:07:08;;;;;;;20.55;11.15;;;2.40;99.90;;;;;;5013900;28;20201;-74
2023/01/04 05:09:33;;;;;;;11.00;9.55;;;2.40;99.90;;;;;;5013757;28;20601;-75
2023/01/04 05:14:43;;;;;;;15.02;10.23;;;2.40;99.90;;;;;;5012832;28;20188;-75
2023/01/04 05:17:08;;;;;;;16.33;10.65;;;2.50;99.90;;;;;;5014857;28;20185;-74
2023/01/04 05:19:34;;;;;;;17.50;10.77;;;2.40;99.90;;;;;;5012661;28;20184;-74
2023/01/04 05:21:59;;;;;;;12.50;10.32;;;2.40;99.90;;;;;;5013426;28;20275;-73
2023/01/04 05:24:25;;;;;;;22.73;10.32;;;2.50;99.90;;;;;;5014190;28;20184;-73
2023/01/04 05:26:51;;;;;;;14.80;10.57;;;2.50;99.90;;;;;;5012059;28;20582;-74
2023/01/04 05:32:00;;;;;;;16.90;10.50;;;2.50;99.90;;;;;;5010441;28;20216;-74
2023/01/04 05:34:26;;;;;;;14.18;11.25;;;2.50;99.90;;;;;;5013515;28;20546;-72
2023/01/04 05:36:51;;;;;;;26.00;11.65;;;2.50;99.90;;;;;;5015813;28;20181;-73
2023/01/04 05:39:17;;;;;;;17.90;11.20;;;2.30;99.90;;;;;;5013068;28;20551;-73
2023/01/04 05:42:25;;;;;;;17.85;10.40;;;2.30;99.90;;;;;;5016377;28;20223;-73
2023/01/04 05:44:31;;;;;;;18.70;11.43;;;2.30;99.90;;;;;;5014642;28;20193;-74
2023/01/04 05:46:57;;;;;;;17.20;11.55;;;2.30;99.90;;;;;;5013470;28;20192;-74
2023/01/04 05:49:22;;;;;;;27.88;11.32;;;2.40;99.90;;;;;;5012137;28;20174;-73
2023/01/04 05:51:48;;;;;;;26.63;11.15;;;2.40;99.90;;;;;;5016148;28;20608;-74
2023/01/04 05:54:13;;;;;;;20.85;10.38;;;2.30;99.90;;;;;;5013120;28;20180;-73
2023/01/04 05:56:39;;;;;;;16.75;10.77;;;2.40;99.90;;;;;;5019773;28;20181;-74
2023/01/04 05:59:04;;;;;;;23.73;11.02;;;2.50;99.90;;;;;;5015368;28;20188;-74
2023/01/04 06:01:30;;;;;;;19.13;11.82;;;2.40;99.90;;;;;;5013545;28;20217;-74
2023/01/04 06:03:56;;;;;;;13.32;9.70;;;2.50;99.90;;;;;;5015058;28;20212;-74
2023/01/04 06:06:22;;;;;;;17.27;9.45;;;2.50;99.90;;;;;;5013167;28;20189;-74
2023/01/04 06:08:47;;;;;;;16.55;11.20;;;2.50;99.90;;;;;;5012085;28;20592;-74
2023/01/04 06:11:13;;;;;;;16.13;10.70;;;2.50;99.90;;;;;;5014116;28;20270;-73
2023/01/04 06:13:38;;;;;;;15.05;10.82;;;2.50;99.90;;;;;;5012357;28;20256;-73
2023/01/04 06:16:04;;;;;;;20.27;11.13;;;2.50;99.90;;;;;;5013828;28;20264;-73
2023/01/04 06:18:30;;;;;;;16.90;10.82;;;2.60;99.90;;;;;;5014982;28;20173;-74
2023/01/04 06:20:55;;;;;;;16.00;11.10;;;2.60;99.90;;;;;;5017380;28;20200;-73
2023/01/04 06:23:21;;;;;;;14.23;10.35;;;2.60;99.90;;;;;;5014154;28;20196;-73
2023/01/04 06:25:47;;;;;;;14.13;10.57;;;2.70;99.90;;;;;;5014220;28;20192;-74
2023/01/04 06:28:12;;;;;;;16.75;10.35;;;2.70;99.90;;;;;;5035457;28;20276;-73
2023/01/04 06:30:38;;;;;;;14.82;10.82;;;2.80;99.90;;;;;;5023775;28;20199;-74
2023/01/04 06:33:03;;;;;;;16.45;10.52;;;2.80;99.90;;;;;;5023645;28;20659;-78
2023/01/04 06:35:29;;;;;;;26.00;12.40;;;2.80;99.90;;;;;;5016460;28;20170;-74
2023/01/04 06:37:54;;;;;;;15.38;10.88;;;2.60;99.90;;;;;;5015570;28;20169;-75
2023/01/04 06:40:20;;;;;;;18.90;11.60;;;2.60;99.90;;;;;;5012288;28;20173;-73
2023/01/04 06:42:45;;;;;;;17.20;11.57;;;2.70;99.90;;;;;;5016212;28;20197;-73
2023/01/04 06:45:15;;;;;;;18.15;11.95;;;2.70;99.90;;;;;;5017081;28;20197;-74
2023/01/04 06:47:41;;;;;;;16.90;11.48;;;2.80;99.90;;;;;;5021285;28;20274;-74
2023/01/04 06:50:07;;;;;;;20.25;12.55;;;2.70;99.90;;;;;;5023205;28;20173;-75
2023/01/04 06:52:33;;;;;;;18.20;12.07;;;2.70;99.90;;;;;;5015707;28;20208;-75
2023/01/04 06:54:59;;;;;;;16.58;12.32;;;2.70;99.90;;;;;;5013307;28;20269;-73
2023/01/04 06:57:24;;;;;;;18.60;12.35;;;2.80;99.90;;;;;;5017392;28;20185;-72
2023/01/04 06:59:50;;;;;;;18.42;12.27;;;2.90;99.90;;;;;;5013381;28;20695;-73
2023/01/04 07:02:15;;;;;;;19.42;12.43;;;2.80;99.90;;;;;;5012861;28;20212;-76
2023/01/04 07:04:42;;;;;;;16.77;11.65;;;2.90;99.90;;;;;;5017244;28;20545;-77
2023/01/04 07:07:08;;;;;;;15.95;12.55;;;2.90;99.90;;;;;;5013979;28;20190;-75
2023/01/04 07:09:34;;;;;;;18.05;13.82;;;2.90;99.90;;;;;;5015718;28;20268;-75
2023/01/04 07:12:00;;;;;;;16.02;11.93;;;2.90;99.90;;;;;;5013250;28;20209;-76
2023/01/04 07:14:26;;;;;;;18.58;12.52;;;3.00;99.90;;;;;;5005401;28;20178;-75
2023/01/04 07:16:52;;;;;;;18.20;12.85;;;3.10;99.90;;;;;;5016421;28;20180;-74
2023/01/04 07:19:17;;;;;;;16.05;12.63;;;3.00;99.90;;;;;;5018523;28;20233;-75
2023/01/04 07:21:43;;;;;;;15.57;12.00;;;3.00;99.90;;;;;;5006962;28;20201;-74
2023/01/04 07:24:08;;;;;;;18.20;12.73;;;3.00;99.90;;;;;;5008149;28;20188;-75
2023/01/04 07:26:34;;;;;;;17.08;12.88;;;3.00;99.90;;;;;;5014472;28;20181;-75
2023/01/04 07:29:18;;;;;;;18.30;13.63;;;3.10;99.90;;;;;;5012520;28;20192;-74
2023/01/04 07:31:49;;;;;;;16.77;13.45;;;3.10;99.90;;;;;;5015436;28;20211;-74
2023/01/04 07:34:16;;;;;;;16.80;13.70;;;3.10;99.90;;;;;;5008953;28;20182;-74
2023/01/04 07:36:43;;;;;;;18.58;13.90;;;3.10;99.90;;;;;;5020056;28;20535;-74
2023/01/04 07:39:10;;;;;;;17.25;12.45;;;3.20;99.90;;;;;;5010290;28;20185;-74
2023/01/04 07:41:40;;;;;;;18.98;13.45;;;3.30;99.90;;;;;;5015994;28;20685;-74
2023/01/04 07:44:07;;;;;;;16.20;12.13;;;3.40;99.90;;;;;;5016275;28;20411;-75
2023/01/04 07:46:34;;;;;;;18.45;13.07;;;3.60;99.90;;;;;;5012123;28;20539;-77
2023/01/04 07:49:00;;;;;;;20.05;13.52;;;3.60;99.90;;;;;;5010970;28;20964;-74
2023/01/04 07:51:25;;;;;;;21.15;14.32;;;3.60;99.90;;;;;;5015126;28;20208;-75
2023/01/04 07:53:51;;;;;;;18.48;11.93;;;3.50;99.90;;;;;;5014928;28;20181;-74
2023/01/04 07:56:17;;;;;;;21.58;14.75;;;3.70;99.90;;;;;;5013173;28;20636;-76
2023/01/04 07:58:42;;;;;;;15.43;12.38;;;3.70;99.90;;;;;;5012175;28;20263;-75
2023/01/04 08:01:16;;;;;;;16.40;12.48;;;3.70;99.90;;;;;;5013509;28;20283;-75
2023/01/04 08:03:44;;;;;;;17.35;12.82;;;3.80;99.90;;;;;;5011592;28;20180;-75
2023/01/04 08:06:12;;;;;;;18.45;14.30;;;3.80;99.90;;;;;;5011347;28;20207;-75
2023/01/04 08:08:37;;;;;;;18.77;13.73;;;3.80;99.90;;;;;;5008114;28;20185;-75
2023/01/04 08:11:05;;;;;;;17.52;13.35;;;3.80;99.90;;;;;;5020143;28;20204;-75
2023/01/04 08:13:31;;;;;;;22.50;15.25;;;3.90;99.90;;;;;;5011486;28;20176;-76
2023/01/04 08:15:57;;;;;;;16.55;12.68;;;3.80;99.90;;;;;;5012449;28;20177;-75
2023/01/04 08:18:23;;;;;;;17.85;13.15;;;3.80;99.90;;;;;;5010881;28;20219;-75
2023/01/04 08:20:48;;;;;;;17.23;13.20;;;3.90;99.90;;;;;;5008673;28;20185;-76
2023/01/04 08:23:14;;;;;;;19.73;13.65;;;4.00;99.90;;;;;;5030699;28;20667;-75
2023/01/04 08:25:40;;;;;;;17.73;13.75;;;4.10;99.90;;;;;;5019337;28;20189;-75
2023/01/04 08:28:05;;;;;;;15.80;12.82;;;4.10;99.90;;;;;;5015059;28;20220;-75
2023/01/04 08:30:31;;;;;;;18.45;14.02;;;4.20;99.90;;;;;;5008454;28;20667;-74
2023/01/04 08:32:57;;;;;;;19.55;14.38;;;4.10;99.90;;;;;;5012201;28;20283;-76
2023/01/04 08:35:22;;;;;;;19.10;14.77;;;4.10;99.90;;;;;;5011831;28;20177;-75
2023/01/04 08:37:48;;;;;;;20.67;13.75;;;4.10;99.90;;;;;;5005985;28;20185;-75
2023/01/04 08:40:14;;;;;;;17.10;13.40;;;4.30;99.90;;;;;;5015382;28;20564;-75
2023/01/04 08:42:39;;;;;;;18.88;13.75;;;4.50;99.90;;;;;;5011441;28;20746;-75
2023/01/04 08:45:05;;;;;;;17.10;13.10;;;4.60;99.90;;;;;;5013156;28;20248;-74
2023/01/04 08:47:32;;;;;;;17.10;13.48;;;4.70;99.90;;;;;;5015204;28;20219;-74
2023/01/04 08:49:58;;;;;;;17.33;13.70;;;4.90;99.90;;;;;;5016950;28;20184;-74
2023/01/04 08:52:24;;;;;;;16.42;12.15;;;4.90;99.90;;;;;;5015808;28;20237;-74
2023/01/04 08:54:50;;;;;;;15.02;12.70;;;4.90;99.90;;;;;;5021691;28;20215;-74
2023/01/04 08:57:16;;;;;;;13.93;11.63;;;5.00;99.90;;;;;;5011464;28;20851;-76
2023/01/04 08:59:42;;;;;;;15.23;12.43;;;5.30;99.90;;;;;;5014141;28;20186;-76
2023/01/04 09:02:23;;;;;;;13.65;11.90;;;5.50;99.90;;;;;;5018884;28;20638;-76
2023/01/04 09:04:49;;;;;;;13.23;11.57;;;5.90;99.90;;;;;;5018755;28;20246;-76
2023/01/04 09:07:15;;;;;;;14.18;11.90;;;6.20;99.90;;;;;;5021691;28;20260;-76
2023/01/04 09:09:41;;;;;;;13.45;11.10;;;6.50;99.90;;;;;;5018307;28;20264;-76
2023/01/04 09:12:06;;;;;;;11.55;10.32;;;6.60;99.90;;;;;;5019116;28;20700;-76
2023/01/04 09:14:32;;;;;;;12.57;11.25;;;6.80;99.90;;;;;;5013580;28;20260;-76
2023/01/04 09:16:57;;;;;;;11.70;10.40;;;7.00;99.90;;;;;;5014467;28;20177;-76
2023/01/04 09:19:23;;;;;;;12.55;10.77;;;6.90;99.90;;;;;;5016409;28;20186;-76
2023/01/04 09:21:49;;;;;;;11.30;10.15;;;7.00;99.90;;;;;;5019753;28;20201;-75
2023/01/04 09:24:14;;;;;;;11.85;10.65;;;7.10;99.90;;;;;;5014213;28;20228;-74
2023/01/04 09:26:40;;;;;;;11.25;10.02;;;7.10;99.90;;;;;;5024841;28;20177;-74
2023/01/04 09:29:05;;;;;;;12.35;11.00;;;7.10;99.90;;;;;;5023388;28;20189;-75
2023/01/04 09:31:32;;;;;;;11.65;10.45;;;7.10;99.90;;;;;;5016088;28;20205;-76
2023/01/04 09:33:58;;;;;;;10.40;9.30;;;7.30;99.90;;;;;;5013574;28;20547;-75
2023/01/04 09:36:25;;;;;;;11.20;9.70;;;7.30;99.90;;;;;;5016998;28;20268;-75
2023/01/04 09:38:51;;;;;;;10.35;9.25;;;7.40;99.90;;;;;;5021409;28;20181;-74
2023/01/04 09:41:24;;;;;;;10.35;9.10;;;7.50;99.90;;;;;;5023203;28;20237;-75
2023/01/04 09:43:54;;;;;;;10.90;9.70;;;7.50;99.90;;;;;;5013855;28;20169;-74
2023/01/04 09:47:02;;;;;;;10.25;9.25;;;7.50;99.90;;;;;;5011581;28;20189;-74
2023/01/04 09:49:46;;;;;;;10.60;9.50;;;7.50;99.90;;;;;;5013963;28;20289;-75
2023/01/04 09:52:18;;;;;;;9.25;8.40;;;7.40;99.90;;;;;;5031561;28;20573;-75
2023/01/04 09:54:54;;;;;;;11.02;9.93;;;7.30;99.90;;;;;;5018888;28;20542;-75
2023/01/04 09:57:54;;;;;;;10.48;9.40;;;7.20;99.90;;;;;;5014432;28;20216;-74
2023/01/04 10:00:31;;;;;;;10.20;9.10;;;7.10;99.90;;;;;;5018098;28;20189;-74
2023/01/04 10:03:03;;;;;;;11.52;10.32;;;7.20;99.90;;;;;;5017972;28;20276;-75
2023/01/04 10:05:31;;;;;;;11.10;9.93;;;7.20;99.90;;;;;;5015874;28;20554;-75
2023/01/04 10:07:57;;;;;;;11.07;9.98;;;7.20;99.90;;;;;;5015561;28;20177;-75
2023/01/04 10:10:46;;;;;;;10.50;9.50;;;7.20;99.90;;;;;;5015443;28;20539;-73
2023/01/04 10:13:29;;;;;;;11.02;9.85;;;7.30;99.90;;;;;;5013280;28;20185;-74
2023/01/04 10:16:15;;;;;;;10.70;9.60;;;7.40;99.90;;;;;;5016793;28;20355;-74
2023/01/04 10:19:19;;;;;;;10.50;8.98;;;7.40;99.90;;;;;;5014255;28;20178;-76
2023/01/04 10:21:45;;;;;;;10.55;9.32;;;7.50;99.90;;;;;;5015555;28;20635;-77
2023/01/04 10:24:39;;;;;;;11.00;9.90;;;7.60;99.90;;;;;;5016207;28;20238;-76
2023/01/04 10:27:39;;;;;;;10.32;9.32;;;7.70;99.90;;;;;;5014170;28;20185;-74
2023/01/04 10:30:33;;;;;;;9.55;8.63;;;7.60;99.90;;;;;;5015153;28;20709;-75
2023/01/04 10:33:34;;;;;;;10.32;9.32;;;7.50;99.90;;;;;;5015522;28;20227;-75
2023/01/04 10:36:00;;;;;;;10.57;9.48;;;7.50;99.90;;;;;;5015145;28;20299;-75
2023/01/04 10:38:34;;;;;;;11.20;9.75;;;7.50;99.90;;;;;;5024936;28;20280;-75
2023/01/04 10:41:12;;;;;;;9.60;8.60;;;7.60;99.90;;;;;;5020839;28;20173;-74
2023/01/04 10:43:49;;;;;;;9.88;8.85;;;7.60;99.90;;;;;;5020423;28;20643;-77
2023/01/04 10:46:29;;;;;;;9.73;8.73;;;7.70;99.90;;;;;;5016254;28;20181;-76
2023/01/04 10:49:03;;;;;;;9.90;8.85;;;7.70;99.90;;;;;;5012894;28;20660;-76
2023/01/04 10:51:41;;;;;;;10.48;9.38;;;7.60;99.90;;;;;;5013948;28;20747;-78
2023/01/04 10:54:29;;;;;;;10.68;9.68;;;7.60;99.90;;;;;;5018529;28;20234;-76
2023/01/04 10:57:05;;;;;;;10.57;9.13;;;7.50;99.90;;;;;;5013264;28;20185;-76
2023/01/04 10:59:47;;;;;;;11.15;10.05;;;7.40;99.90;;;;;;5017672;28;20183;-76
2023/01/04 11:02:24;;;;;;;11.90;10.10;;;7.20;99.90;;;;;;5012685;28;20598;-76
2023/01/04 11:05:03;;;;;;;12.25;11.05;;;7.00;99.90;;;;;;5014507;28;20192;-79
2023/01/04 11:07:52;;;;;;;11.80;10.60;;;6.90;99.90;;;;;;5014809;28;20188;-81
2023/01/04 11:10:26;;;;;;;12.23;10.98;;;6.80;99.90;;;;;;5011978;28;20185;-78
2023/01/04 11:12:52;;;;;;;10.45;9.43;;;6.80;99.90;;;;;;5012625;28;20196;-79
2023/01/04 11:15:18;;;;;;;13.15;10.63;;;6.60;99.90;;;;;;5021315;28;20183;-78
2023/01/04 11:17:46;;;;;;;11.88;10.55;;;6.60;99.90;;;;;;5017154;28;20253;-78
2023/01/04 11:20:12;;;;;;;13.73;11.32;;;6.60;99.90;;;;;;5014440;28;20173;-80
2023/01/04 11:23:00;;;;;;;11.90;10.52;;;6.60;99.90;;;;;;5021333;28;20374;-80
2023/01/04 11:25:27;;;;;;;14.68;12.18;;;6.60;99.90;;;;;;5014847;28;20249;-80
2023/01/04 11:28:01;;;;;;;13.45;11.07;;;6.60;99.90;;;;;;5016816;28;20216;-80
2023/01/04 11:30:53;;;;;;;15.88;11.98;;;6.50;99.90;;;;;;5033006;28;20277;-80
2023/01/04 11:33:20;;;;;;;12.98;10.95;;;6.40;99.90;;;;;;5009002;28;20272;-79
2023/01/04 11:35:51;;;;;;;12.45;10.98;;;6.40;99.90;;;;;;5018138;28;20180;-80
2023/01/04 11:38:23;;;;;;;15.27;12.10;;;6.60;99.90;;;;;;5018155;28;20168;-80
2023/01/04 11:41:06;;;;;;;14.07;12.32;;;6.70;99.90;;;;;;5012214;28;20200;-80
2023/01/04 11:43:36;;;;;;;14.77;11.30;;;6.70;99.90;;;;;;5012537;28;20173;-79
2023/01/04 11:46:23;;;;;;;14.50;12.50;;;6.80;99.90;;;;;;5014036;28;20263;-79
2023/01/04 11:48:50;;;;;;;12.45;10.88;;;6.90;99.90;;;;;;5011951;28;20656;-79
2023/01/04 11:51:19;;;;;;;12.90;11.27;;;7.00;99.90;;;;;;5011414;28;20209;-79
2023/01/04 11:53:55;;;;;;;13.25;11.00;;;7.20;99.90;;;;;;5011198;28;20173;-79
2023/01/04 11:56:23;;;;;;;14.27;11.25;;;7.20;99.90;;;;;;5011997;28;20177;-79
2023/01/04 11:59:04;;;;;;;11.30;10.20;;;7.10;99.90;;;;;;5006014;28;20212;-79
2023/01/04 12:01:32;;;;;;;12.15;10.10;;;7.20;99.90;;;;;;5012863;28;20678;-79
2023/01/04 12:03:58;;;;;;;11.40;10.18;;;7.30;99.90;;;;;;5007528;28;20197;-78
2023/01/04 12:06:47;;;;;;;11.45;10.27;;;7.40;99.90;;;;;;5015845;28;20562;-78
2023/01/04 12:09:14;;;;;;;11.57;10.38;;;7.30;99.90;;;;;;5013776;28;20177;-78
2023/01/04 12:11:45;;;;;;;11.82;10.18;;;7.30;99.90;;;;;;5013155;28;20674;-78
2023/01/04 12:14:36;;;;;;;10.80;9.70;;;7.20;99.90;;;;;;5015513;28;20610;-76
2023/01/04 12:17:34;;;;;;;10.57;9.55;;;7.20;99.90;;;;;;5014386;28;20169;-76
2023/01/04 12:20:03;;;;;;;12.32;10.73;;;7.10;99.90;;;;;;5013547;28;20189;-76
2023/01/04 12:22:38;;;;;;;11.65;10.45;;;7.00;99.90;;;;;;5018687;28;20687;-76
2023/01/04 12:25:28;;;;;;;11.73;10.40;;;7.00;99.90;;;;;;5015206;28;20231;-76
2023/01/04 12:27:54;;;;;;;12.18;10.27;;;7.00;99.90;;;;;;5014312;28;20193;-77
2023/01/04 12:30:45;;;;;;;10.77;9.55;;;6.90;99.90;;;;;;5009159;28;20272;-77
2023/01/04 12:33:29;;;;;;;14.20;10.98;;;7.00;99.90;;;;;;5013025;28;20215;-77
2023/01/04 12:36:02;;;;;;;13.90;11.20;;;6.90;99.90;;;;;;5014776;28;20173;-77
2023/01/04 12:38:54;;;;;;;12.77;10.98;;;6.80;99.90;;;;;;5020191;28;20263;-75
2023/01/04 12:41:59;;;;;;;11.00;9.75;;;7.00;99.90;;;;;;5014400;28;20213;-76
2023/01/04 12:44:41;;;;;;;10.88;9.63;;;7.10;99.90;;;;;;5018823;28;20197;-76
2023/01/04 12:50:14;;;;;;;10.85;9.18;;;7.10;99.90;;;;;;5010677;28;20199;-76
2023/01/04 12:52:41;;;;;;;9.57;8.38;;;7.20;99.90;;;;;;5010510;28;20211;-76
2023/01/04 12:55:29;;;;;;;8.93;8.02;;;7.40;99.90;;;;;;5011848;28;20271;-76
2023/01/04 12:57:57;;;;;;;10.23;9.07;;;7.50;99.90;;;;;;5013873;28;20196;-76
2023/01/04 13:00:43;;;;;;;9.55;8.65;;;7.60;99.90;;;;;;5011004;28;20315;-76
2023/01/04 13:03:14;;;;;;;6.85;6.15;;;7.60;99.90;;;;;;5010850;28;20215;-76
2023/01/04 13:05:50;;;;;;;5.97;4.90;;;7.80;99.90;;;;;;5012714;28;20280;-76
2023/01/04 13:08:16;;;;;;;6.00;5.40;;;7.90;99.90;;;;;;5012200;28;20181;-76
2023/01/04 13:10:52;;;;;;;3.90;3.60;;;7.90;99.90;;;;;;5012727;28;20277;-76
2023/01/04 13:13:27;;;;;;;3.70;3.40;;;8.10;99.90;;;;;;5011013;28;20614;-77
2023/01/04 13:16:16;;;;;;;3.95;3.58;;;8.20;99.90;;;;;;5016628;28;20172;-77
2023/01/04 13:18:51;;;;;;;3.17;2.83;;;8.30;99.90;;;;;;5024548;28;20184;-77
2023/01/04 13:21:25;;;;;;;4.15;3.85;;;8.40;99.90;;;;;;5012117;28;20200;-77
2023/01/04 13:23:54;;;;;;;3.08;2.88;;;8.60;99.90;;;;;;5008213;28;20181;-78
2023/01/04 13:26:36;;;;;;;5.70;5.15;;;8.70;99.90;;;;;;5010488;28;20216;-78
2023/01/04 13:29:10;;;;;;;4.00;3.70;;;8.70;99.90;;;;;;5006980;28;20181;-78
2023/01/04 13:31:42;;;;;;;3.30;3.00;;;8.70;99.90;;;;;;5010904;28;20205;-78
2023/01/04 13:34:18;;;;;;;3.53;3.22;;;8.90;99.90;;;;;;5020707;28;20267;-77
2023/01/04 13:37:04;;;;;;;2.95;2.75;;;8.90;99.90;;;;;;5013720;28;20186;-78
2023/01/04 13:39:29;;;;;;;2.80;2.60;;;8.90;99.90;;;;;;5014946;28;20185;-78
2023/01/04 13:41:56;;;;;;;2.38;2.28;;;9.00;99.90;;;;;;5013556;28;20213;-78
2023/01/04 13:44:42;;;;;;;2.47;2.35;;;9.20;99.90;;;;;;5016238;28;20181;-78
2023/01/04 13:47:08;;;;;;;3.13;2.88;;;9.30;99.90;;;;;;5017996;28;20190;-77
2023/01/04 13:49:37;;;;;;;2.40;2.20;;;9.30;99.90;;;;;;5015597;28;20278;-78